Time;durP1;ratioP1;P1;durP2;ratioP2;P2;SDS_P1;SDS_P2;PMS_P1;PMS_P2;Temp;Humidity;BMP_temperature;BMP_pressure;BME280_temperature;BME280_humidity;BME280_pressure;Samples;Min_cycle;Max_cycle;Signal;HPM_P1;HPM_P2
2022/09/13 00:00:36;;;;;;;5.85;5.20;;;;;;;;;;4969892;28;20027;-60
2022/09/13 00:03:02;;;;;;;6.00;5.47;;;;;;;;;;4973321;28;20500;-60
2022/09/13 00:05:27;;;;;;;5.68;5.18;;;;;;;;;;4969184;28;20684;-60
2022/09/13 00:07:54;;;;;;;6.28;5.68;;;;;;;;;;4970229;28;20544;-60
2022/09/13 00:10:19;;;;;;;6.55;5.85;;;;;;;;;;4972735;28;20526;-59
2022/09/13 00:12:44;;;;;;;6.63;5.95;;;;;;;;;;4973120;28;20042;-60
2022/09/13 00:15:10;;;;;;;6.90;6.30;;;;;;;;;;4972572;28;20488;-60
2022/09/13 00:17:36;;;;;;;6.35;5.75;;;;;;;;;;4981050;28;20030;-61
2022/09/13 00:20:01;;;;;;;6.15;5.55;;;;;;;;;;4969938;28;20066;-61
2022/09/13 00:22:26;;;;;;;8.07;6.40;;;;;;;;;;4969100;28;20031;-61
2022/09/13 00:24:52;;;;;;;7.55;5.65;;;;;;;;;;4971728;28;20035;-61
2022/09/13 00:27:17;;;;;;;7.05;6.35;;;;;;;;;;4974321;28;20061;-59
2022/09/13 00:29:43;;;;;;;11.85;6.63;;;;;;;;;;4973599;28;20022;-59
2022/09/13 00:32:08;;;;;;;8.57;6.20;;;;;;;;;;4972473;28;20462;-60
2022/09/13 00:34:36;;;;;;;5.95;5.47;;;;;;;;;;4972355;28;20386;-60
2022/09/13 00:37:01;;;;;;;6.47;5.50;;;;;;;;;;4973260;28;20030;-61
2022/09/13 00:39:26;;;;;;;8.13;5.93;;;;;;;;;;4972408;28;20050;-60
2022/09/13 00:41:51;;;;;;;6.93;6.32;;;;;;;;;;4972781;28;20030;-60
2022/09/13 00:44:35;;;;;;;6.20;5.70;;;;;;;;;;4973155;28;20454;-60
2022/09/13 00:47:01;;;;;;;8.00;5.95;;;;;;;;;;4972439;28;20040;-60
2022/09/13 00:49:33;;;;;;;6.93;5.90;;;;;;;;;;4972621;28;20042;-60
2022/09/13 00:52:00;;;;;;;6.75;6.13;;;;;;;;;;4974264;28;20357;-60
2022/09/13 00:54:28;;;;;;;6.18;5.68;;;;;;;;;;4973806;28;20031;-61
2022/09/13 00:56:55;;;;;;;7.50;6.13;;;;;;;;;;4970913;28;20181;-61
2022/09/13 00:59:33;;;;;;;7.72;6.05;;;;;;;;;;4968601;28;20026;-60
2022/09/13 01:02:00;;;;;;;6.63;6.03;;;;;;;;;;4971774;28;20046;-61
2022/09/13 01:04:27;;;;;;;6.57;5.95;;;;;;;;;;4973704;28;20023;-61
2022/09/13 01:06:55;;;;;;;6.05;5.50;;;;;;;;;;4971941;28;20522;-59
2022/09/13 01:09:22;;;;;;;7.00;5.80;;;;;;;;;;4973018;28;20035;-61
2022/09/13 01:11:49;;;;;;;7.47;6.63;;;;;;;;;;4971830;28;20088;-61
2022/09/13 01:14:16;;;;;;;8.00;5.80;;;;;;;;;;4972716;28;20026;-60
2022/09/13 01:16:41;;;;;;;10.43;6.10;;;;;;;;;;4972446;28;20027;-62
2022/09/13 01:19:07;;;;;;;7.15;5.07;;;;;;;;;;4973620;28;20078;-60
2022/09/13 01:21:32;;;;;;;6.55;5.82;;;;;;;;;;4971544;28;20375;-61
2022/09/13 01:24:13;;;;;;;6.40;5.80;;;;;;;;;;4969249;28;20033;-59
2022/09/13 01:26:49;;;;;;;9.43;5.93;;;;;;;;;;4970713;28;20200;-59
2022/09/13 01:29:23;;;;;;;6.85;5.93;;;;;;;;;;4972816;28;20051;-61
2022/09/13 01:31:49;;;;;;;5.75;5.25;;;;;;;;;;4972010;28;20536;-61
2022/09/13 01:34:38;;;;;;;8.00;6.18;;;;;;;;;;4972303;28;20038;-61
2022/09/13 01:37:12;;;;;;;6.55;5.63;;;;;;;;;;4968126;28;20089;-61
2022/09/13 01:39:56;;;;;;;7.10;5.43;;;;;;;;;;4969234;28;20030;-61
2022/09/13 01:42:30;;;;;;;6.50;5.85;;;;;;;;;;4971588;28;20030;-61
2022/09/13 01:45:05;;;;;;;6.75;6.03;;;;;;;;;;4973201;28;20085;-61
2022/09/13 01:47:42;;;;;;;6.38;5.78;;;;;;;;;;4967266;28;20039;-61
2022/09/13 01:50:28;;;;;;;6.80;6.07;;;;;;;;;;4970149;28;20417;-61
2022/09/13 01:53:02;;;;;;;6.10;5.60;;;;;;;;;;4971583;28;20031;-61
2022/09/13 01:55:30;;;;;;;9.98;6.40;;;;;;;;;;4973249;28;20552;-61
2022/09/13 01:58:00;;;;;;;7.57;6.82;;;;;;;;;;4972332;28;20382;-61
2022/09/13 02:00:26;;;;;;;8.65;6.55;;;;;;;;;;4975922;28;20027;-61
2022/09/13 02:02:56;;;;;;;7.60;6.85;;;;;;;;;;4975404;28;20034;-61
2022/09/13 02:05:21;;;;;;;6.72;5.90;;;;;;;;;;4974964;28;20110;-61
2022/09/13 02:07:52;;;;;;;6.97;6.28;;;;;;;;;;4976220;28;20392;-60
2022/09/13 02:10:26;;;;;;;6.65;5.70;;;;;;;;;;4977652;28;20042;-60
2022/09/13 02:12:52;;;;;;;8.38;6.57;;;;;;;;;;4975620;28;20026;-61
2022/09/13 02:15:20;;;;;;;6.65;6.05;;;;;;;;;;4975684;28;20034;-61
2022/09/13 02:17:49;;;;;;;6.97;5.90;;;;;;;;;;4975315;28;20905;-60
2022/09/13 02:20:18;;;;;;;6.30;5.70;;;;;;;;;;4976256;28;20039;-60
2022/09/13 02:22:47;;;;;;;7.07;6.38;;;;;;;;;;4971383;28;20033;-61
2022/09/13 02:25:14;;;;;;;8.43;6.90;;;;;;;;;;4973663;28;20031;-61
2022/09/13 02:27:42;;;;;;;7.32;5.97;;;;;;;;;;4974550;28;20387;-61
2022/09/13 02:30:09;;;;;;;7.45;5.95;;;;;;;;;;4975852;28;20037;-61
2022/09/13 02:32:40;;;;;;;8.20;6.20;;;;;;;;;;4975376;28;20035;-61
2022/09/13 02:35:24;;;;;;;7.68;6.07;;;;;;;;;;4976061;28;20034;-61
2022/09/13 02:38:09;;;;;;;7.13;6.00;;;;;;;;;;4975124;28;20104;-60
2022/09/13 02:40:39;;;;;;;6.17;5.50;;;;;;;;;;4975803;28;20014;-60
2022/09/13 02:43:07;;;;;;;6.63;6.03;;;;;;;;;;4975248;28;20285;-61
2022/09/13 02:45:39;;;;;;;8.05;6.32;;;;;;;;;;4975660;28;20042;-62
2022/09/13 02:48:09;;;;;;;7.57;6.38;;;;;;;;;;4975531;28;20035;-60
2022/09/13 02:50:37;;;;;;;7.13;5.72;;;;;;;;;;4975000;28;20485;-60
2022/09/13 02:53:14;;;;;;;7.20;6.50;;;;;;;;;;4982019;28;20027;-60
2022/09/13 02:56:04;;;;;;;6.88;6.25;;;;;;;;;;4975048;28;20061;-60
2022/09/13 02:58:36;;;;;;;7.68;6.32;;;;;;;;;;4974861;28;20034;-64
2022/09/13 03:01:01;;;;;;;7.32;6.07;;;;;;;;;;4975582;28;20543;-61
2022/09/13 03:03:26;;;;;;;8.55;5.80;;;;;;;;;;4973521;28;20034;-62
2022/09/13 03:05:52;;;;;;;6.53;5.93;;;;;;;;;;4975107;28;20030;-61
2022/09/13 03:08:18;;;;;;;6.85;5.93;;;;;;;;;;4973685;28;20163;-62
2022/09/13 03:11:02;;;;;;;7.85;6.35;;;;;;;;;;4974478;28;20018;-62
2022/09/13 03:13:27;;;;;;;7.25;6.53;;;;;;;;;;4975133;28;20090;-62
2022/09/13 03:16:00;;;;;;;7.43;6.70;;;;;;;;;;4974786;28;20126;-61
2022/09/13 03:18:36;;;;;;;6.95;6.35;;;;;;;;;;4973585;28;20428;-61
2022/09/13 03:21:06;;;;;;;6.90;6.20;;;;;;;;;;4977167;28;20122;-61
2022/09/13 03:23:34;;;;;;;10.38;5.93;;;;;;;;;;4973258;28;20011;-62
2022/09/13 03:26:05;;;;;;;7.13;6.20;;;;;;;;;;4971927;28;20031;-62
2022/09/13 03:28:36;;;;;;;6.97;5.75;;;;;;;;;;4969017;28;20051;-62
2022/09/13 03:31:11;;;;;;;6.70;6.10;;;;;;;;;;4984540;28;20482;-62
2022/09/13 03:33:36;;;;;;;9.10;6.07;;;;;;;;;;4974555;28;20033;-62
2022/09/13 03:36:11;;;;;;;6.93;6.05;;;;;;;;;;4974389;28;20031;-62
2022/09/13 03:38:39;;;;;;;6.40;5.80;;;;;;;;;;4973997;28;20047;-62
2022/09/13 03:41:07;;;;;;;7.32;5.95;;;;;;;;;;4973666;28;20816;-62
2022/09/13 03:43:37;;;;;;;6.95;6.03;;;;;;;;;;4972977;28;20038;-62
2022/09/13 03:46:05;;;;;;;7.03;6.43;;;;;;;;;;4973667;28;20113;-62
2022/09/13 03:48:31;;;;;;;7.78;6.72;;;;;;;;;;4973015;28;20034;-62
2022/09/13 03:50:57;;;;;;;8.13;6.35;;;;;;;;;;4974413;28;20067;-62
2022/09/13 03:53:23;;;;;;;9.35;6.63;;;;;;;;;;4971545;28;20177;-62
2022/09/13 03:55:48;;;;;;;8.40;6.63;;;;;;;;;;4971634;28;20042;-62
2022/09/13 03:58:15;;;;;;;10.07;7.43;;;;;;;;;;4973671;28;20404;-62
2022/09/13 04:00:41;;;;;;;7.07;6.13;;;;;;;;;;4975780;28;20440;-62
2022/09/13 04:03:07;;;;;;;9.45;6.72;;;;;;;;;;4974375;28;20031;-62
2022/09/13 04:05:35;;;;;;;8.80;6.82;;;;;;;;;;4974859;28;20019;-62
2022/09/13 04:08:01;;;;;;;8.93;6.97;;;;;;;;;;4981695;28;20041;-62
2022/09/13 04:10:27;;;;;;;7.43;6.50;;;;;;;;;;4974419;28;20273;-62
2022/09/13 04:12:55;;;;;;;7.97;6.93;;;;;;;;;;4973036;28;20608;-62
2022/09/13 04:15:21;;;;;;;7.40;6.63;;;;;;;;;;4982866;28;20027;-61
2022/09/13 04:17:47;;;;;;;7.35;6.65;;;;;;;;;;4973268;28;20409;-62
2022/09/13 04:20:12;;;;;;;7.60;6.45;;;;;;;;;;4974096;28;20069;-62
2022/09/13 04:22:37;;;;;;;8.10;6.93;;;;;;;;;;4972310;28;20038;-62
2022/09/13 04:25:03;;;;;;;8.05;7.25;;;;;;;;;;4972668;28;20070;-62
2022/09/13 04:27:28;;;;;;;8.95;6.63;;;;;;;;;;4972773;28;20046;-61
2022/09/13 04:29:53;;;;;;;9.23;7.40;;;;;;;;;;4973350;28;20022;-62
2022/09/13 04:32:18;;;;;;;8.85;6.82;;;;;;;;;;4972846;28;20030;-63
2022/09/13 04:34:44;;;;;;;9.35;6.35;;;;;;;;;;4972877;28;20027;-62
2022/09/13 04:37:10;;;;;;;8.75;6.40;;;;;;;;;;4972760;28;20069;-65
2022/09/13 04:39:35;;;;;;;7.85;7.05;;;;;;;;;;4973206;28;20077;-62
2022/09/13 04:42:01;;;;;;;7.68;6.88;;;;;;;;;;4973217;28;20033;-62
2022/09/13 04:44:26;;;;;;;7.85;6.45;;;;;;;;;;4972794;28;20031;-62
2022/09/13 04:46:51;;;;;;;7.10;6.40;;;;;;;;;;4973869;28;20109;-61
2022/09/13 04:49:17;;;;;;;9.50;6.80;;;;;;;;;;4972674;28;20066;-60
2022/09/13 04:51:42;;;;;;;9.77;7.65;;;;;;;;;;4974014;28;20038;-63
2022/09/13 04:54:09;;;;;;;7.97;6.38;;;;;;;;;;4972479;28;20026;-60
2022/09/13 04:56:34;;;;;;;10.25;7.68;;;;;;;;;;4973063;28;20085;-62
2022/09/13 04:58:59;;;;;;;7.50;6.60;;;;;;;;;;4972448;28;20030;-62
2022/09/13 05:01:25;;;;;;;8.15;6.43;;;;;;;;;;4974037;28;20023;-62
2022/09/13 05:03:51;;;;;;;9.20;6.60;;;;;;;;;;4971861;28;20027;-62
2022/09/13 05:06:16;;;;;;;8.35;7.13;;;;;;;;;;4972081;28;20030;-64
2022/09/13 05:08:42;;;;;;;12.75;7.68;;;;;;;;;;4970891;28;20099;-62
2022/09/13 05:11:07;;;;;;;13.45;7.85;;;;;;;;;;4972647;28;20064;-66
2022/09/13 05:13:33;;;;;;;11.23;7.38;;;;;;;;;;4973429;28;20054;-68
2022/09/13 05:16:03;;;;;;;7.97;6.55;;;;;;;;;;4972613;28;20031;-69
2022/09/13 05:18:31;;;;;;;8.07;6.05;;;;;;;;;;4972331;28;20536;-66
2022/09/13 05:20:57;;;;;;;7.13;6.43;;;;;;;;;;4973971;28;20041;-65
2022/09/13 05:23:23;;;;;;;7.15;6.30;;;;;;;;;;4972420;28;20027;-65
2022/09/13 05:25:52;;;;;;;6.22;5.72;;;;;;;;;;4973486;28;20030;-66
2022/09/13 05:28:17;;;;;;;6.55;5.57;;;;;;;;;;4972048;28;21001;-65
2022/09/13 05:30:43;;;;;;;7.05;6.18;;;;;;;;;;4976278;28;20024;-66
2022/09/13 05:33:08;;;;;;;7.60;5.55;;;;;;;;;;4973887;28;20537;-66
2022/09/13 05:35:33;;;;;;;6.25;5.43;;;;;;;;;;4975314;28;20038;-65
2022/09/13 05:37:58;;;;;;;6.72;6.03;;;;;;;;;;4976809;28;20034;-65
2022/09/13 05:40:24;;;;;;;6.50;5.57;;;;;;;;;;4977849;28;20089;-65
2022/09/13 05:42:51;;;;;;;7.30;5.65;;;;;;;;;;4974959;28;20590;-66
2022/09/13 05:45:16;;;;;;;6.25;5.10;;;;;;;;;;4970069;28;20061;-65
2022/09/13 05:47:42;;;;;;;6.50;5.90;;;;;;;;;;4973696;28;20117;-66
2022/09/13 05:50:07;;;;;;;7.07;6.38;;;;;;;;;;4975998;28;20040;-65
2022/09/13 05:52:32;;;;;;;7.03;6.30;;;;;;;;;;4975875;28;20069;-63
2022/09/13 05:54:57;;;;;;;8.38;5.75;;;;;;;;;;4980525;28;20676;-63
2022/09/13 05:57:23;;;;;;;6.78;5.65;;;;;;;;;;4976652;28;20049;-63
2022/09/13 05:59:48;;;;;;;5.20;4.70;;;;;;;;;;4971026;28;20034;-62
2022/09/13 06:02:13;;;;;;;5.70;5.03;;;;;;;;;;4974128;28;20038;-63
2022/09/13 06:04:38;;;;;;;6.40;4.95;;;;;;;;;;4970970;28;20027;-61
2022/09/13 06:07:04;;;;;;;7.05;5.65;;;;;;;;;;4973173;28;20039;-62
2022/09/13 06:09:29;;;;;;;5.63;5.13;;;;;;;;;;4975575;28;20057;-61
2022/09/13 06:11:54;;;;;;;6.53;5.43;;;;;;;;;;5007293;28;20035;-61
2022/09/13 06:14:19;;;;;;;5.82;5.22;;;;;;;;;;4973758;28;20039;-63
2022/09/13 06:16:44;;;;;;;5.60;5.05;;;;;;;;;;4971954;28;20026;-61
2022/09/13 06:19:10;;;;;;;6.03;5.40;;;;;;;;;;4976291;28;20023;-61
2022/09/13 06:21:35;;;;;;;5.90;5.40;;;;;;;;;;4976130;28;20036;-61
2022/09/13 06:24:00;;;;;;;5.80;5.22;;;;;;;;;;4976201;28;20027;-61
2022/09/13 06:26:26;;;;;;;5.40;4.90;;;;;;;;;;4975412;28;20070;-61
2022/09/13 06:28:53;;;;;;;6.65;4.60;;;;;;;;;;4970180;28;20105;-61
2022/09/13 06:31:20;;;;;;;5.85;4.50;;;;;;;;;;4971606;28;20509;-61
2022/09/13 06:33:45;;;;;;;6.05;5.53;;;;;;;;;;4972518;28;20027;-62
2022/09/13 06:36:13;;;;;;;8.88;6.25;;;;;;;;;;4968732;28;20802;-61
2022/09/13 06:38:39;;;;;;;6.25;5.65;;;;;;;;;;4972576;28;20098;-61
2022/09/13 06:41:09;;;;;;;5.50;4.88;;;;;;;;;;4969070;28;20442;-61
2022/09/13 06:43:35;;;;;;;8.15;6.35;;;;;;;;;;4972450;28;20551;-61
2022/09/13 06:46:08;;;;;;;6.20;5.65;;;;;;;;;;4974569;28;20027;-61
2022/09/13 06:48:34;;;;;;;5.90;5.30;;;;;;;;;;4972758;28;20113;-60
2022/09/13 06:51:00;;;;;;;6.63;5.93;;;;;;;;;;4971958;28;20110;-60
2022/09/13 06:53:27;;;;;;;6.88;6.22;;;;;;;;;;4969265;28;20314;-60
2022/09/13 06:56:19;;;;;;;6.38;5.88;;;;;;;;;;4970507;28;20147;-61
2022/09/13 06:58:45;;;;;;;6.13;5.63;;;;;;;;;;4972605;28;20038;-61
2022/09/13 07:01:12;;;;;;;6.57;5.97;;;;;;;;;;4973438;28;20030;-61
2022/09/13 07:03:38;;;;;;;6.63;6.03;;;;;;;;;;4969386;28;20029;-61
2022/09/13 07:06:15;;;;;;;5.57;5.07;;;;;;;;;;4970437;28;20026;-58
2022/09/13 07:08:41;;;;;;;8.30;6.65;;;;;;;;;;4973222;28;20623;-61
2022/09/13 07:11:06;;;;;;;5.80;5.20;;;;;;;;;;4968955;28;20532;-61
2022/09/13 07:13:32;;;;;;;6.15;5.65;;;;;;;;;;4972339;28;20019;-60
2022/09/13 07:16:01;;;;;;;6.57;5.97;;;;;;;;;;4972822;28;20030;-61
2022/09/13 07:18:26;;;;;;;6.55;5.68;;;;;;;;;;4973865;28;20474;-61
2022/09/13 07:20:51;;;;;;;6.63;6.00;;;;;;;;;;4973815;28;20276;-61
2022/09/13 07:23:17;;;;;;;5.53;5.07;;;;;;;;;;4970439;28;20121;-61
2022/09/13 07:25:42;;;;;;;6.50;6.00;;;;;;;;;;4971172;28;20037;-60
2022/09/13 07:28:07;;;;;;;6.97;6.00;;;;;;;;;;4930395;28;1270121;-60
2022/09/13 07:30:33;;;;;;;7.72;5.75;;;;;;;;;;4974062;28;20046;-59
2022/09/13 07:32:58;;;;;;;6.57;5.95;;;;;;;;;;4976154;28;20030;-59
2022/09/13 07:35:23;;;;;;;6.18;5.20;;;;;;;;;;4974449;28;20496;-61
2022/09/13 07:37:48;;;;;;;5.68;5.05;;;;;;;;;;4975307;28;20034;-61
2022/09/13 07:40:13;;;;;;;6.50;5.90;;;;;;;;;;4971676;28;20503;-61
2022/09/13 07:42:39;;;;;;;6.18;5.68;;;;;;;;;;4969647;28;20519;-64
2022/09/13 07:45:04;;;;;;;6.40;5.80;;;;;;;;;;4971277;28;20078;-61
2022/09/13 07:47:32;;;;;;;7.20;6.50;;;;;;;;;;4974105;28;20031;-62
2022/09/13 07:49:57;;;;;;;6.57;6.05;;;;;;;;;;4973435;28;20027;-60
2022/09/13 07:52:22;;;;;;;7.95;5.85;;;;;;;;;;4973935;28;20065;-61
2022/09/13 07:54:49;;;;;;;7.10;6.40;;;;;;;;;;4974946;28;20031;-62
2022/09/13 07:57:14;;;;;;;6.97;6.28;;;;;;;;;;4971828;28;20041;-60
2022/09/13 07:59:39;;;;;;;6.68;6.10;;;;;;;;;;4974664;28;20030;-61
2022/09/13 08:02:05;;;;;;;6.00;5.50;;;;;;;;;;4974836;28;20174;-62
2022/09/13 08:04:30;;;;;;;13.18;10.85;;;;;;;;;;4974133;28;20113;-60
2022/09/13 08:06:55;;;;;;;7.53;6.80;;;;;;;;;;4968359;28;20029;-60
2022/09/13 08:09:20;;;;;;;9.35;6.65;;;;;;;;;;4972063;28;20034;-61
2022/09/13 08:11:47;;;;;;;6.85;6.15;;;;;;;;;;4968861;28;20038;-59
2022/09/13 08:14:14;;;;;;;7.32;6.57;;;;;;;;;;4971081;28;20638;-60
2022/09/13 08:16:39;;;;;;;7.80;5.78;;;;;;;;;;4968489;28;20034;-60
2022/09/13 08:19:05;;;;;;;6.28;5.68;;;;;;;;;;4970737;28;20849;-60
2022/09/13 08:21:35;;;;;;;6.68;5.28;;;;;;;;;;4973863;28;20471;-60
2022/09/13 08:24:01;;;;;;;10.40;4.55;;;;;;;;;;4981166;28;20029;-61
2022/09/13 08:26:27;;;;;;;6.75;5.15;;;;;;;;;;4972250;28;20014;-59
2022/09/13 08:28:59;;;;;;;5.30;4.80;;;;;;;;;;4971566;28;20901;-60
2022/09/13 08:31:25;;;;;;;5.38;4.82;;;;;;;;;;4968732;28;20390;-62
2022/09/13 08:33:50;;;;;;;5.75;4.82;;;;;;;;;;4972792;28;20034;-61
2022/09/13 08:36:16;;;;;;;8.05;4.78;;;;;;;;;;4973317;28;20039;-62
2022/09/13 08:38:45;;;;;;;6.40;4.65;;;;;;;;;;4970820;28;20037;-62
2022/09/13 08:41:29;;;;;;;5.70;4.43;;;;;;;;;;4967004;28;20137;-63
2022/09/13 08:43:55;;;;;;;5.25;4.75;;;;;;;;;;4969902;28;20022;-61
2022/09/13 08:46:20;;;;;;;5.72;4.85;;;;;;;;;;4969395;28;20086;-62
2022/09/13 08:48:46;;;;;;;6.97;5.05;;;;;;;;;;4972026;28;20118;-61
2022/09/13 08:51:32;;;;;;;7.45;5.00;;;;;;;;;;4971086;28;20023;-62
2022/09/13 08:53:58;;;;;;;4.88;4.00;;;;;;;;;;4967425;28;20037;-62
2022/09/13 08:56:37;;;;;;;6.65;5.20;;;;;;;;;;4973219;28;20453;-62
2022/09/13 08:59:11;;;;;;;6.20;4.20;;;;;;;;;;4974396;28;20035;-62
2022/09/13 09:01:46;;;;;;;5.55;4.32;;;;;;;;;;4968486;28;20030;-63
2022/09/13 09:04:17;;;;;;;4.80;4.25;;;;;;;;;;4970584;28;20025;-62
2022/09/13 09:06:43;;;;;;;5.40;4.47;;;;;;;;;;4972287;28;20808;-61
2022/09/13 09:09:18;;;;;;;4.93;4.43;;;;;;;;;;4972589;28;20129;-62
2022/09/13 09:11:50;;;;;;;4.75;4.15;;;;;;;;;;4969846;28;20078;-61
2022/09/13 09:14:15;;;;;;;6.85;4.90;;;;;;;;;;4968505;28;20026;-62
2022/09/13 09:16:44;;;;;;;4.95;4.07;;;;;;;;;;4973193;28;20023;-62
2022/09/13 09:19:13;;;;;;;4.40;4.00;;;;;;;;;;4973441;28;20066;-63
2022/09/13 09:21:38;;;;;;;5.47;4.43;;;;;;;;;;4972323;28;20389;-62
2022/09/13 09:24:04;;;;;;;6.38;3.92;;;;;;;;;;4972706;28;20031;-63
2022/09/13 09:26:30;;;;;;;4.43;4.07;;;;;;;;;;4972702;28;20420;-63
2022/09/13 09:28:55;;;;;;;4.25;3.88;;;;;;;;;;4970422;28;20058;-60
2022/09/13 09:31:31;;;;;;;4.45;4.05;;;;;;;;;;4967915;28;20488;-60
2022/09/13 09:33:59;;;;;;;3.92;3.63;;;;;;;;;;4970569;28;20106;-61
2022/09/13 09:36:24;;;;;;;10.60;4.18;;;;;;;;;;4967984;28;20588;-59
2022/09/13 09:38:49;;;;;;;4.57;4.22;;;;;;;;;;4970198;28;20041;-60
2022/09/13 09:41:37;;;;;;;4.20;3.80;;;;;;;;;;4974467;28;20038;-60
2022/09/13 09:44:22;;;;;;;5.05;4.13;;;;;;;;;;4972927;28;20031;-61
2022/09/13 09:46:49;;;;;;;4.28;3.88;;;;;;;;;;4971055;28;20065;-61
2022/09/13 09:52:13;;;;;;;4.07;3.30;;;;;;;;;;4968596;28;20057;-60
2022/09/13 09:54:40;;;;;;;4.53;3.92;;;;;;;;;;4970980;28;20484;-60
2022/09/13 09:57:07;;;;;;;4.45;3.63;;;;;;;;;;4972988;28;20023;-60
2022/09/13 09:59:33;;;;;;;3.95;3.65;;;;;;;;;;4973740;28;20026;-61
2022/09/13 10:01:59;;;;;;;4.18;3.78;;;;;;;;;;4971715;28;20027;-60
2022/09/13 10:04:24;;;;;;;5.47;4.18;;;;;;;;;;4969473;28;20026;-60
2022/09/13 10:07:06;;;;;;;5.45;4.63;;;;;;;;;;4969322;28;20037;-60
2022/09/13 10:09:31;;;;;;;4.40;4.00;;;;;;;;;;4972191;28;20078;-61
2022/09/13 10:11:58;;;;;;;3.95;3.65;;;;;;;;;;4972963;28;20050;-62
2022/09/13 10:14:40;;;;;;;4.07;3.78;;;;;;;;;;4969666;28;20022;-60
2022/09/13 10:17:21;;;;;;;5.40;3.75;;;;;;;;;;4967425;28;20537;-60
2022/09/13 10:19:53;;;;;;;3.92;3.55;;;;;;;;;;4971390;28;20438;-60
2022/09/13 10:22:18;;;;;;;4.55;4.15;;;;;;;;;;4976427;28;20105;-60
2022/09/13 10:24:43;;;;;;;5.72;4.18;;;;;;;;;;4975931;28;20499;-61
2022/09/13 10:27:23;;;;;;;4.15;3.85;;;;;;;;;;4976610;28;20034;-61
2022/09/13 10:29:50;;;;;;;3.97;3.67;;;;;;;;;;4974320;28;20353;-60
2022/09/13 10:32:18;;;;;;;3.95;3.75;;;;;;;;;;4971428;28;20045;-60
2022/09/13 10:34:44;;;;;;;4.43;4.03;;;;;;;;;;4971824;28;20679;-61
2022/09/13 10:37:39;;;;;;;4.03;3.70;;;;;;;;;;4970918;28;20073;-61
2022/09/13 10:40:08;;;;;;;4.63;4.23;;;;;;;;;;4971273;28;20105;-65
2022/09/13 10:42:33;;;;;;;4.25;3.85;;;;;;;;;;4975728;28;20314;-60
2022/09/13 10:45:04;;;;;;;4.50;4.05;;;;;;;;;;4975611;28;20027;-65
2022/09/13 10:47:33;;;;;;;4.75;4.35;;;;;;;;;;4976200;28;20057;-65
2022/09/13 10:50:09;;;;;;;4.03;3.70;;;;;;;;;;4975836;28;20027;-65
2022/09/13 10:52:40;;;;;;;4.15;3.63;;;;;;;;;;4974559;28;20045;-66
2022/09/13 10:55:22;;;;;;;3.67;3.38;;;;;;;;;;4974346;28;20027;-66
2022/09/13 10:58:00;;;;;;;5.05;4.60;;;;;;;;;;4973962;28;20421;-66
2022/09/13 11:00:41;;;;;;;3.50;3.30;;;;;;;;;;4977096;28;20380;-66
2022/09/13 11:03:12;;;;;;;3.70;3.50;;;;;;;;;;4974863;28;20074;-65
2022/09/13 11:05:44;;;;;;;4.50;4.20;;;;;;;;;;4974596;28;20058;-65
2022/09/13 11:08:12;;;;;;;4.53;3.90;;;;;;;;;;4973979;28;20038;-66
2022/09/13 11:10:38;;;;;;;4.80;4.50;;;;;;;;;;4974765;28;20030;-66
2022/09/13 11:13:13;;;;;;;3.95;3.65;;;;;;;;;;4971263;28;20680;-66
2022/09/13 11:15:38;;;;;;;4.78;3.65;;;;;;;;;;4970253;28;20031;-61
2022/09/13 11:18:12;;;;;;;4.07;3.80;;;;;;;;;;4974771;28;20496;-62
2022/09/13 11:20:44;;;;;;;4.47;4.18;;;;;;;;;;4974930;28;20023;-61
2022/09/13 11:23:09;;;;;;;4.32;3.70;;;;;;;;;;4974809;28;20145;-61
2022/09/13 11:25:37;;;;;;;3.72;3.53;;;;;;;;;;4973798;28;20366;-66
2022/09/13 11:28:14;;;;;;;4.22;3.83;;;;;;;;;;4969269;28;20162;-67
2022/09/13 11:30:45;;;;;;;3.88;3.67;;;;;;;;;;4971333;28;20037;-66
2022/09/13 11:33:24;;;;;;;4.68;3.95;;;;;;;;;;4969008;28;20485;-67
2022/09/13 11:35:50;;;;;;;3.58;3.28;;;;;;;;;;4970805;28;20022;-60
2022/09/13 11:38:19;;;;;;;3.53;3.28;;;;;;;;;;4974094;28;20092;-62
2022/09/13 11:40:57;;;;;;;4.10;3.80;;;;;;;;;;4975588;28;20039;-66
2022/09/13 11:43:34;;;;;;;3.50;3.30;;;;;;;;;;4974395;28;20114;-67
2022/09/13 11:46:09;;;;;;;4.38;3.63;;;;;;;;;;4972519;28;20026;-66
2022/09/13 11:48:53;;;;;;;4.35;3.95;;;;;;;;;;4974009;28;20029;-66
2022/09/13 11:51:24;;;;;;;3.72;3.47;;;;;;;;;;4973532;28;20022;-66
2022/09/13 11:53:49;;;;;;;3.40;3.17;;;;;;;;;;4974139;28;20105;-67
2022/09/13 11:56:31;;;;;;;4.13;3.90;;;;;;;;;;4974779;28;20765;-62
2022/09/13 11:59:08;;;;;;;4.10;3.80;;;;;;;;;;4973693;28;20027;-66
2022/09/13 12:01:37;;;;;;;4.57;4.18;;;;;;;;;;4975957;28;20023;-66
2022/09/13 12:04:05;;;;;;;4.80;4.50;;;;;;;;;;4975108;28;20108;-66
2022/09/13 12:06:32;;;;;;;3.95;3.65;;;;;;;;;;4972260;28;20030;-66
2022/09/13 12:09:03;;;;;;;4.93;3.60;;;;;;;;;;4970105;28;20117;-66
2022/09/13 12:11:38;;;;;;;3.97;3.55;;;;;;;;;;4970250;28;20110;-69
2022/09/13 12:14:03;;;;;;;;;;;;;;;;;;4973660;28;20090;-66
2022/09/13 12:16:35;;;;;;;3.90;3.60;;;;;;;;;;4972290;28;19916;-67
2022/09/13 12:19:02;;;;;;;4.18;3.80;;;;;;;;;;4972290;28;20109;-67
2022/09/13 12:21:38;;;;;;;4.07;3.88;;;;;;;;;;4972565;28;20093;-66
2022/09/13 12:24:20;;;;;;;3.38;3.17;;;;;;;;;;4967837;28;20026;-66
2022/09/13 12:26:53;;;;;;;4.05;3.60;;;;;;;;;;4970919;28;20497;-66
2022/09/13 12:29:28;;;;;;;4.10;3.78;;;;;;;;;;4971835;28;20060;-66
2022/09/13 12:31:56;;;;;;;4.78;3.55;;;;;;;;;;4973390;28;20792;-66
2022/09/13 12:34:28;;;;;;;3.92;3.72;;;;;;;;;;4973264;28;20026;-67
2022/09/13 12:36:57;;;;;;;4.07;3.75;;;;;;;;;;4973160;28;20034;-67
2022/09/13 12:39:43;;;;;;;4.60;4.18;;;;;;;;;;4972447;28;20526;-66
2022/09/13 12:42:18;;;;;;;4.93;4.47;;;;;;;;;;4973532;28;20030;-67
2022/09/13 12:44:43;;;;;;;3.70;3.40;;;;;;;;;;4971380;28;20037;-67
2022/09/13 12:47:12;;;;;;;4.05;3.80;;;;;;;;;;4967737;28;20469;-67
2022/09/13 12:49:37;;;;;;;4.75;4.13;;;;;;;;;;4969658;28;20037;-67
2022/09/13 12:52:11;;;;;;;4.30;4.10;;;;;;;;;;4973703;28;20437;-67
2022/09/13 12:54:56;;;;;;;3.97;3.78;;;;;;;;;;4973505;28;20473;-65
2022/09/13 12:57:32;;;;;;;3.92;3.60;;;;;;;;;;4974550;28;20046;-67
2022/09/13 12:59:57;;;;;;;3.60;3.38;;;;;;;;;;5003367;28;20086;-67
2022/09/13 13:02:23;;;;;;;3.63;3.42;;;;;;;;;;4968958;28;20097;-66
2022/09/13 13:04:52;;;;;;;4.40;4.07;;;;;;;;;;4970806;28;20205;-66
2022/09/13 13:07:19;;;;;;;5.15;4.20;;;;;;;;;;4973047;28;20392;-66
2022/09/13 13:09:47;;;;;;;3.97;3.78;;;;;;;;;;4972974;28;20384;-66
2022/09/13 13:12:24;;;;;;;4.28;3.80;;;;;;;;;;4969050;28;20506;-66
2022/09/13 13:14:55;;;;;;;4.35;4.13;;;;;;;;;;4966813;28;20031;-67
2022/09/13 13:17:56;;;;;;;3.80;3.50;;;;;;;;;;4973443;28;20085;-67
2022/09/13 13:20:38;;;;;;;3.92;3.65;;;;;;;;;;4969634;28;20030;-67
2022/09/13 13:23:14;;;;;;;4.50;4.10;;;;;;;;;;4970688;28;20043;-66
2022/09/13 13:25:53;;;;;;;3.80;3.60;;;;;;;;;;4968518;28;20155;-66
2022/09/13 13:28:37;;;;;;;3.63;3.42;;;;;;;;;;4971075;28;20452;-66
2022/09/13 13:31:02;;;;;;;3.97;3.67;;;;;;;;;;4970729;28;20062;-67
2022/09/13 13:33:28;;;;;;;3.95;3.65;;;;;;;;;;4963776;28;20421;-68
2022/09/13 13:35:53;;;;;;;3.75;3.55;;;;;;;;;;4969173;28;20129;-67
2022/09/13 13:38:22;;;;;;;3.72;3.42;;;;;;;;;;4970954;28;20477;-66
2022/09/13 13:40:49;;;;;;;3.47;3.28;;;;;;;;;;4969990;28;20516;-66
2022/09/13 13:43:35;;;;;;;3.50;3.30;;;;;;;;;;4965524;28;20682;-66
2022/09/13 13:46:09;;;;;;;3.55;3.35;;;;;;;;;;4967742;28;20038;-67
2022/09/13 13:48:36;;;;;;;3.08;2.88;;;;;;;;;;4970725;28;20042;-67
2022/09/13 13:51:14;;;;;;;3.25;3.15;;;;;;;;;;4968991;28;20046;-67
2022/09/13 13:53:42;;;;;;;4.50;3.60;;;;;;;;;;4963660;28;20892;-66
2022/09/13 13:56:16;;;;;;;3.47;3.28;;;;;;;;;;4955033;28;20043;-67
2022/09/13 13:58:54;;;;;;;4.28;3.88;;;;;;;;;;4957208;28;20074;-69
2022/09/13 14:01:21;;;;;;;4.00;3.63;;;;;;;;;;4957368;28;20042;-69
2022/09/13 14:03:50;;;;;;;3.20;2.90;;;;;;;;;;4957805;28;20697;-69
2022/09/13 14:06:18;;;;;;;3.40;3.20;;;;;;;;;;4955861;28;20027;-68
2022/09/13 14:08:44;;;;;;;3.42;3.13;;;;;;;;;;4959966;28;20492;-68
2022/09/13 14:11:24;;;;;;;3.22;3.03;;;;;;;;;;4957866;28;20034;-68
2022/09/13 14:14:14;;;;;;;6.43;3.72;;;;;;;;;;4957457;28;20020;-68
2022/09/13 14:16:46;;;;;;;5.80;3.13;;;;;;;;;;4952538;28;20058;-66
2022/09/13 14:19:20;;;;;;;4.25;3.95;;;;;;;;;;4954775;28;20035;-65
2022/09/13 14:21:45;;;;;;;3.90;3.10;;;;;;;;;;4956149;28;20354;-66
2022/09/13 14:24:13;;;;;;;3.45;3.15;;;;;;;;;;4957915;28;20039;-66
2022/09/13 14:26:39;;;;;;;4.35;3.63;;;;;;;;;;4956910;28;20469;-67
2022/09/13 14:29:08;;;;;;;4.65;3.72;;;;;;;;;;4973670;28;20502;-67
2022/09/13 14:31:33;;;;;;;3.05;2.85;;;;;;;;;;4976220;28;20034;-67
2022/09/13 14:33:58;;;;;;;4.18;2.95;;;;;;;;;;4984434;28;20029;-67
2022/09/13 14:36:26;;;;;;;3.15;2.95;;;;;;;;;;4990321;28;20081;-64
2022/09/13 14:38:55;;;;;;;3.53;3.30;;;;;;;;;;4975755;28;20045;-64
2022/09/13 14:41:21;;;;;;;3.67;3.38;;;;;;;;;;4976022;28;20466;-64
2022/09/13 14:43:47;;;;;;;3.38;3.13;;;;;;;;;;4976941;28;20055;-64
2022/09/13 14:46:12;;;;;;;3.97;3.53;;;;;;;;;;4976741;28;20115;-64
2022/09/13 14:48:39;;;;;;;4.47;3.40;;;;;;;;;;4975800;28;20027;-64
2022/09/13 14:51:25;;;;;;;3.88;3.35;;;;;;;;;;4974989;28;20274;-64
2022/09/13 14:53:53;;;;;;;4.35;3.17;;;;;;;;;;4975811;28;20034;-65
2022/09/13 14:56:24;;;;;;;3.83;3.40;;;;;;;;;;4975186;28;20035;-64
2022/09/13 14:58:52;;;;;;;3.42;3.22;;;;;;;;;;4969278;28;20077;-66